createdAt,value
2023-04-08T00:01:58.082Z,80.75
2023-04-08T00:04:26.428Z,80.87
2023-04-08T00:06:54.629Z,80.96
2023-04-08T00:09:22.577Z,81.06
2023-04-08T00:11:50.550Z,81.17
2023-04-08T00:14:18.676Z,81.27
2023-04-08T00:16:46.601Z,81.40
2023-04-08T00:19:14.727Z,81.53
2023-04-08T00:21:42.738Z,81.63
2023-04-08T00:24:11.193Z,81.59
2023-04-08T00:26:39.536Z,81.62
2023-04-08T00:29:07.946Z,81.68
2023-04-08T00:31:36.757Z,81.74
2023-04-08T00:34:04.716Z,81.83
2023-04-08T00:36:33.879Z,81.90
2023-04-08T00:39:02.442Z,81.91
2023-04-08T00:41:31.074Z,82.00
2023-04-08T00:43:59.452Z,82.09
2023-04-08T00:46:28.624Z,82.22
2023-04-08T00:48:56.777Z,82.26
2023-04-08T00:51:24.794Z,82.28
2023-04-08T00:53:52.784Z,82.26
2023-04-08T00:56:21.715Z,82.28
2023-04-08T00:58:51.675Z,82.30
2023-04-08T01:01:32.969Z,82.45
2023-04-08T01:04:01.133Z,82.47
2023-04-08T01:06:36.964Z,82.51
2023-04-08T01:09:06.315Z,82.49
2023-04-08T01:11:35.898Z,82.55
2023-04-08T01:14:07.805Z,82.74
2023-04-08T01:16:37.979Z,82.82
2023-04-08T01:19:09.209Z,82.70
2023-04-08T01:21:38.866Z,82.86
2023-04-08T01:24:14.325Z,83.07
2023-04-08T01:26:43.717Z,83.13
2023-04-08T01:29:13.950Z,83.24
2023-04-08T01:31:43.629Z,83.37
2023-04-08T01:34:14.457Z,83.44
2023-04-08T01:36:45.561Z,83.50
2023-04-08T01:39:17.592Z,83.60
2023-04-08T01:41:48.805Z,83.62
2023-04-08T01:44:18.848Z,83.72
2023-04-08T01:46:49.205Z,83.82
2023-04-08T01:49:19.185Z,83.89
2023-04-08T01:51:48.625Z,83.93
2023-04-08T01:54:16.588Z,83.97
2023-04-08T01:56:45.453Z,84.05
2023-04-08T01:59:15.856Z,84.07
2023-04-08T02:01:47.837Z,84.05
2023-04-08T02:04:16.160Z,84.02
2023-04-08T02:06:46.922Z,83.86
2023-04-08T02:09:14.999Z,83.91
2023-04-08T02:11:43.046Z,83.99
2023-04-08T02:14:11.089Z,83.98
2023-04-08T02:16:42.537Z,84.10
2023-04-08T02:19:16.248Z,84.24
2023-04-08T02:21:50.732Z,84.24
2023-04-08T02:24:20.596Z,84.21
2023-04-08T02:26:51.936Z,84.27
2023-04-08T02:29:19.941Z,84.21
2023-04-08T02:31:51.274Z,84.14
2023-04-08T02:34:22.199Z,84.21
2023-04-08T02:36:51.241Z,84.31
2023-04-08T02:39:20.020Z,84.49
2023-04-08T02:41:49.847Z,84.65
2023-04-08T02:44:17.813Z,84.90
2023-04-08T02:46:45.977Z,85.10
2023-04-08T02:49:13.833Z,85.28
2023-04-08T02:51:41.810Z,85.41
2023-04-08T02:54:09.764Z,85.50
2023-04-08T02:56:37.615Z,85.48
2023-04-08T02:59:05.725Z,85.26
2023-04-08T03:01:33.900Z,85.12
2023-04-08T03:04:02.036Z,85.17
2023-04-08T03:06:29.978Z,85.35
2023-04-08T03:08:57.961Z,85.55
2023-04-08T03:11:26.373Z,85.69
2023-04-08T03:13:54.248Z,85.82
2023-04-08T03:16:22.208Z,85.96
2023-04-08T03:18:53.461Z,86.08
2023-04-08T03:21:21.398Z,86.19
2023-04-08T03:23:49.397Z,86.29
2023-04-08T03:26:17.249Z,86.40
2023-04-08T03:28:45.262Z,86.49
2023-04-08T03:31:13.396Z,86.53
2023-04-08T03:33:41.239Z,86.53
2023-04-08T03:36:09.948Z,86.48
2023-04-08T03:38:37.969Z,86.34
2023-04-08T03:41:06.074Z,86.15
2023-04-08T03:43:35.204Z,86.02
2023-04-08T03:46:04.767Z,85.93
2023-04-08T03:48:32.719Z,85.88
2023-04-08T03:51:00.752Z,85.83
2023-04-08T03:53:29.467Z,85.81
2023-04-08T03:55:58.394Z,85.80
2023-04-08T03:58:26.278Z,85.79
2023-04-08T04:05:19.664Z,85.74
2023-04-08T04:07:47.642Z,85.83
2023-04-08T04:10:15.736Z,86.00
2023-04-08T04:12:44.782Z,86.15
2023-04-08T04:15:12.795Z,86.31
2023-04-08T04:17:40.894Z,86.46
2023-04-08T04:20:10.401Z,86.58
2023-04-08T04:22:38.310Z,86.63
2023-04-08T04:25:06.937Z,86.60
2023-04-08T04:27:35.719Z,86.60
2023-04-08T04:34:40.350Z,86.65
2023-04-08T04:37:08.234Z,85.49
2023-04-08T04:39:36.476Z,83.38
2023-04-08T04:42:05.116Z,80.56
2023-04-08T04:44:33.757Z,77.16
2023-04-08T04:47:01.789Z,73.54
2023-04-08T04:49:29.796Z,69.72
2023-04-08T04:51:58.782Z,66.44
2023-04-08T04:54:26.750Z,62.94
2023-04-08T04:56:54.802Z,61.44
2023-04-08T04:59:22.704Z,61.46
2023-04-08T05:01:50.670Z,61.19
2023-04-08T05:04:18.665Z,62.32
2023-04-08T05:06:46.540Z,62.71
2023-04-08T05:09:14.533Z,63.09
2023-04-08T05:11:42.715Z,63.22
2023-04-08T05:14:10.840Z,63.42
2023-04-08T05:16:39.358Z,63.89
2023-04-08T05:19:07.318Z,63.61
2023-04-08T05:21:35.388Z,63.36
2023-04-08T05:24:03.645Z,63.44
2023-04-08T05:26:31.809Z,63.08
2023-04-08T05:28:59.712Z,62.58
2023-04-08T05:31:28.111Z,63.01
2023-04-08T05:33:56.218Z,62.20
2023-04-08T05:36:25.054Z,62.11
2023-04-08T05:38:52.967Z,61.19
2023-04-08T05:41:21.412Z,61.85
2023-04-08T05:43:49.369Z,62.11
2023-04-08T05:46:17.435Z,60.47
2023-04-08T05:48:45.728Z,61.37
2023-04-08T05:51:18.127Z,60.28
2023-04-08T05:53:47.265Z,60.24
2023-04-08T05:56:15.613Z,59.48
2023-04-08T05:58:43.662Z,58.60
2023-04-08T06:01:11.726Z,60.16
2023-04-08T06:03:39.847Z,60.31
2023-04-08T06:06:14.772Z,59.31
2023-04-08T06:08:42.811Z,60.22
2023-04-08T06:11:11.573Z,60.68
2023-04-08T06:13:39.637Z,60.99
2023-04-08T06:16:12.413Z,59.35
2023-04-08T06:18:40.760Z,59.63
2023-04-08T06:21:09.189Z,58.35
2023-04-08T06:23:37.672Z,57.59
2023-04-08T06:26:06.043Z,58.00
2023-04-08T06:28:33.977Z,57.90
2023-04-08T06:31:01.918Z,56.93
2023-04-08T06:33:29.888Z,58.01
2023-04-08T06:36:05.790Z,56.03
2023-04-08T06:38:34.446Z,56.90
2023-04-08T06:41:06.617Z,56.78
2023-04-08T06:43:36.590Z,55.25
2023-04-08T06:46:04.921Z,54.86
2023-04-08T06:48:33.053Z,54.02
2023-04-08T06:51:01.452Z,55.18
2023-04-08T06:53:30.742Z,55.60
2023-04-08T06:55:59.566Z,55.15
2023-04-08T06:58:27.885Z,52.97
2023-04-08T07:00:56.555Z,53.13
2023-04-08T07:03:24.705Z,53.42
2023-04-08T07:05:53.593Z,54.06
2023-04-08T07:08:21.552Z,53.40
2023-04-08T07:10:49.448Z,52.77
2023-04-08T07:13:17.554Z,52.87
2023-04-08T07:15:45.535Z,52.38
2023-04-08T07:18:19.713Z,51.84
2023-04-08T07:20:53.267Z,52.51
2023-04-08T07:23:21.411Z,53.15
2023-04-08T07:25:49.764Z,52.68
2023-04-08T07:28:17.831Z,51.79
2023-04-08T07:30:45.905Z,51.75
2023-04-08T07:33:14.788Z,50.79
2023-04-08T07:35:43.237Z,51.58
2023-04-08T07:38:13.429Z,51.25
2023-04-08T07:40:41.610Z,51.27
2023-04-08T07:43:09.839Z,50.91
2023-04-08T07:45:37.819Z,50.67
2023-04-08T07:48:06.025Z,49.94
2023-04-08T07:50:36.984Z,50.87
2023-04-08T07:53:26.539Z,50.91
2023-04-08T07:55:54.516Z,50.22
2023-04-08T07:58:22.639Z,50.49
2023-04-08T08:00:51.126Z,49.39
2023-04-08T08:03:19.268Z,49.81
2023-04-08T08:05:47.546Z,47.91
2023-04-08T08:08:15.635Z,49.12
2023-04-08T08:10:43.888Z,50.50
2023-04-08T08:13:15.180Z,48.71
2023-04-08T08:15:43.020Z,49.90
2023-04-08T08:18:10.931Z,49.39
2023-04-08T08:20:39.147Z,48.45
2023-04-08T08:23:07.266Z,48.80
2023-04-08T08:25:35.152Z,49.08
2023-04-08T08:28:03.127Z,48.15
2023-04-08T08:30:32.310Z,50.19
2023-04-08T08:33:01.772Z,51.22
2023-04-08T08:35:29.884Z,51.13
2023-04-08T08:37:58.134Z,49.88
2023-04-08T08:40:27.197Z,51.00
2023-04-08T08:42:55.541Z,51.31
2023-04-08T08:45:23.608Z,53.07
2023-04-08T08:47:51.720Z,52.89
2023-04-08T08:50:19.821Z,52.86
2023-04-08T08:52:52.232Z,52.88
2023-04-08T08:55:39.434Z,52.43
2023-04-08T08:58:10.027Z,52.90
2023-04-08T09:00:41.108Z,52.25
2023-04-08T09:03:17.055Z,52.86
2023-04-08T09:05:52.525Z,53.07
2023-04-08T09:08:30.510Z,52.69
2023-04-08T09:11:18.876Z,53.53
2023-04-08T09:13:47.833Z,53.34
2023-04-08T09:16:18.884Z,53.77
2023-04-08T09:18:49.469Z,54.32
2023-04-08T09:21:18.412Z,53.94
2023-04-08T09:23:48.952Z,53.74
2023-04-08T09:26:22.560Z,53.82
2023-04-08T09:29:18.401Z,52.78
2023-04-08T09:31:57.737Z,53.11
2023-04-08T09:34:28.926Z,54.93
2023-04-08T09:36:56.961Z,53.70
2023-04-08T09:39:25.060Z,53.10
2023-04-08T09:41:58.574Z,52.46
2023-04-08T09:44:30.216Z,52.07
2023-04-08T09:47:13.200Z,53.08
2023-04-08T09:49:46.883Z,52.59
2023-04-08T09:52:24.379Z,52.22
2023-04-08T09:54:52.505Z,52.50
2023-04-08T09:57:28.967Z,53.19
2023-04-08T10:00:05.436Z,53.39
2023-04-08T10:05:54.324Z,53.24
2023-04-08T10:08:26.052Z,54.40
2023-04-08T10:10:56.355Z,51.64
2023-04-08T10:13:25.727Z,52.85
2023-04-08T10:16:19.286Z,52.52
2023-04-08T10:18:51.076Z,51.92
2023-04-08T10:21:32.290Z,52.18
2023-04-08T10:24:06.063Z,51.57
2023-04-08T10:26:36.442Z,51.62
2023-04-08T10:29:27.721Z,51.87
2023-04-08T10:31:57.755Z,52.56
2023-04-08T10:34:27.421Z,51.66
2023-04-08T10:36:59.053Z,52.28
2023-04-08T10:39:27.639Z,51.11
2023-04-08T10:41:56.581Z,49.57
2023-04-08T10:44:26.955Z,49.52
2023-04-08T10:46:55.818Z,50.84
2023-04-08T10:49:33.243Z,50.37
2023-04-08T10:52:01.866Z,50.12
2023-04-08T10:54:29.918Z,50.37
2023-04-08T10:56:58.053Z,51.04
2023-04-08T10:59:30.848Z,50.55
2023-04-08T11:04:43.057Z,49.95
2023-04-08T11:07:11.476Z,50.58
2023-04-08T11:09:41.134Z,49.89
2023-04-08T11:12:09.164Z,50.80
2023-04-08T11:14:38.434Z,49.93
2023-04-08T11:17:06.860Z,49.97
2023-04-08T11:19:36.440Z,50.62
2023-04-08T11:22:07.750Z,49.36
2023-04-08T11:24:37.829Z,49.28
2023-04-08T11:27:08.903Z,49.55
2023-04-08T11:29:38.222Z,51.04
2023-04-08T11:32:06.294Z,50.35
2023-04-08T11:34:39.004Z,50.51
2023-04-08T11:37:07.332Z,49.36
2023-04-08T11:39:42.761Z,48.27
2023-04-08T11:42:30.466Z,48.56
2023-04-08T11:44:59.135Z,48.96
2023-04-08T11:47:34.354Z,48.94
2023-04-08T11:50:03.806Z,49.30
2023-04-08T11:53:06.628Z,48.22
2023-04-08T11:55:37.382Z,47.84
2023-04-08T11:58:06.938Z,48.54
2023-04-08T12:00:34.932Z,47.37
2023-04-08T12:03:03.683Z,46.01
2023-04-08T12:05:31.912Z,46.74
2023-04-08T12:08:01.286Z,46.76
2023-04-08T12:10:29.853Z,46.31
2023-04-08T12:12:57.746Z,46.52
2023-04-08T12:15:26.103Z,45.97
2023-04-08T12:17:54.144Z,45.79
2023-04-08T12:20:22.102Z,46.55
2023-04-08T12:22:50.162Z,46.37
2023-04-08T12:25:18.137Z,46.94
2023-04-08T12:27:46.183Z,46.22
2023-04-08T12:30:16.275Z,46.35
2023-04-08T12:32:46.113Z,47.08
2023-04-08T12:35:15.002Z,46.71
2023-04-08T12:37:42.915Z,45.59
2023-04-08T12:40:11.199Z,45.34
2023-04-08T12:42:39.632Z,46.12
2023-04-08T12:45:08.426Z,44.24
2023-04-08T12:47:36.369Z,44.42
2023-04-08T12:50:04.864Z,45.15
2023-04-08T12:52:33.368Z,45.23
2023-04-08T12:55:01.264Z,46.24
2023-04-08T12:57:29.473Z,46.21
2023-04-08T12:59:57.802Z,46.67
2023-04-08T13:02:27.453Z,46.28
2023-04-08T13:04:55.727Z,45.56
2023-04-08T13:07:23.810Z,45.19
2023-04-08T13:09:51.733Z,44.99
2023-04-08T13:12:19.732Z,45.57
2023-04-08T13:14:47.718Z,46.15
2023-04-08T13:17:15.811Z,44.81
2023-04-08T13:19:43.959Z,45.35
2023-04-08T13:22:11.819Z,45.48
2023-04-08T13:24:39.921Z,44.77
2023-04-08T13:27:08.482Z,44.19
2023-04-08T13:29:36.453Z,45.49
2023-04-08T13:32:04.727Z,45.37
2023-04-08T13:34:32.796Z,44.54
2023-04-08T13:37:00.712Z,44.23
2023-04-08T13:39:28.681Z,44.47
2023-04-08T13:41:56.990Z,44.70
2023-04-08T13:44:24.943Z,45.00
2023-04-08T13:46:53.208Z,45.13
2023-04-08T13:49:21.138Z,45.18
2023-04-08T13:51:49.091Z,44.64
2023-04-08T13:54:17.132Z,44.03
2023-04-08T13:56:45.016Z,44.66
2023-04-08T13:59:12.873Z,44.03
2023-04-08T14:01:40.990Z,43.53
2023-04-08T14:04:09.246Z,43.97
2023-04-08T14:06:38.045Z,43.99
2023-04-08T14:09:06.294Z,44.08
2023-04-08T14:11:34.557Z,43.64
2023-04-08T14:14:04.422Z,43.93
2023-04-08T14:16:32.866Z,44.63
2023-04-08T14:19:00.829Z,44.94
2023-04-08T14:21:28.946Z,45.28
2023-04-08T14:23:56.990Z,45.02
2023-04-08T14:26:25.078Z,44.74
2023-04-08T14:28:53.127Z,44.63
2023-04-08T14:31:22.061Z,45.61
2023-04-08T14:33:50.098Z,45.39
2023-04-08T14:36:19.235Z,45.28
2023-04-08T14:38:47.244Z,45.99
2023-04-08T14:41:15.202Z,45.62
2023-04-08T14:43:43.115Z,45.10
2023-04-08T14:46:11.318Z,45.18
2023-04-08T14:48:39.358Z,45.84
2023-04-08T14:51:07.818Z,46.07
2023-04-08T14:53:36.523Z,46.30
2023-04-08T14:56:05.352Z,46.28
2023-04-08T14:58:33.297Z,46.18
2023-04-08T15:01:01.288Z,46.91
2023-04-08T15:03:29.329Z,47.64
2023-04-08T15:05:58.739Z,47.86
2023-04-08T15:08:27.164Z,48.06
2023-04-08T15:10:55.668Z,48.61
2023-04-08T15:13:23.836Z,48.92
2023-04-08T15:15:52.174Z,49.23
2023-04-08T15:18:21.231Z,49.18
2023-04-08T15:20:49.299Z,49.73
2023-04-08T15:23:17.635Z,50.04
2023-04-08T15:25:45.595Z,50.09
2023-04-08T15:28:13.706Z,50.59
2023-04-08T15:30:41.849Z,50.34
2023-04-08T15:33:09.917Z,49.98
2023-04-08T15:35:39.016Z,49.61
2023-04-08T15:38:07.870Z,50.06
2023-04-08T15:40:36.137Z,50.60
2023-04-08T15:43:04.262Z,50.62
2023-04-08T15:45:33.666Z,50.99
2023-04-08T15:48:02.525Z,50.85
2023-04-08T15:50:31.017Z,51.05
2023-04-08T15:52:58.957Z,51.11
2023-04-08T15:55:26.910Z,51.19
2023-04-08T15:57:56.743Z,51.22
2023-04-08T16:00:25.185Z,51.10
2023-04-08T16:02:53.440Z,51.28
2023-04-08T16:05:21.703Z,51.69
2023-04-08T16:07:49.751Z,52.06
2023-04-08T16:10:17.658Z,52.71
2023-04-08T16:12:46.591Z,52.08
2023-04-08T16:15:14.709Z,51.73
2023-04-08T16:17:42.681Z,51.85
2023-04-08T16:20:11.586Z,51.88
2023-04-08T16:22:39.820Z,52.26
2023-04-08T16:25:08.245Z,52.49
2023-04-08T16:27:38.279Z,52.56
2023-04-08T16:30:06.909Z,52.25
2023-04-08T16:32:34.878Z,52.27
2023-04-08T16:35:02.936Z,51.96
2023-04-08T16:37:31.309Z,51.91
2023-04-08T16:39:59.399Z,51.92
2023-04-08T16:42:27.772Z,52.18
2023-04-08T16:44:59.816Z,52.19
2023-04-08T16:47:28.944Z,52.69
2023-04-08T16:49:57.245Z,52.91
2023-04-08T16:52:25.545Z,52.84
2023-04-08T16:54:53.536Z,53.34
2023-04-08T16:57:21.565Z,53.48
2023-04-08T16:59:49.590Z,53.77
2023-04-08T17:02:17.583Z,53.79
2023-04-08T17:04:50.247Z,53.68
2023-04-08T17:07:18.360Z,53.80
2023-04-08T17:09:52.278Z,54.22
2023-04-08T17:12:21.285Z,53.97
2023-04-08T17:14:49.450Z,54.01
2023-04-08T17:17:18.054Z,54.11
2023-04-08T17:19:46.349Z,54.19
2023-04-08T17:22:14.474Z,54.21
2023-04-08T17:24:47.081Z,54.23
2023-04-08T17:27:16.179Z,54.28
2023-04-08T17:29:44.477Z,54.31
2023-04-08T17:32:13.693Z,54.37
2023-04-08T17:34:42.074Z,54.52
2023-04-08T17:37:10.461Z,54.67
2023-04-08T17:39:41.137Z,54.56
2023-04-08T17:42:09.705Z,54.64
2023-04-08T17:44:38.077Z,54.61
2023-04-08T17:47:06.917Z,54.96
2023-04-08T17:49:35.144Z,54.73
2023-04-08T17:52:03.605Z,54.86
2023-04-08T17:54:34.673Z,54.86
2023-04-08T17:57:03.300Z,55.03
2023-04-08T17:59:31.373Z,54.94
2023-04-08T18:01:59.423Z,55.09
2023-04-08T18:04:29.832Z,54.93
2023-04-08T18:06:58.012Z,54.96
2023-04-08T18:09:25.925Z,54.94
2023-04-08T18:11:53.870Z,54.99
2023-04-08T18:14:22.136Z,55.19
2023-04-08T18:16:50.491Z,55.46
2023-04-08T18:19:18.837Z,55.98
2023-04-08T18:21:46.876Z,56.27
2023-04-08T18:24:15.558Z,56.57
2023-04-08T18:26:45.408Z,57.07
2023-04-08T18:29:15.509Z,57.36
2023-04-08T18:31:43.771Z,57.83
2023-04-08T18:34:12.763Z,58.46
2023-04-08T18:36:41.188Z,58.85
2023-04-08T18:39:09.433Z,59.50
2023-04-08T18:41:38.876Z,59.90
2023-04-08T18:44:06.966Z,59.93
2023-04-08T18:46:35.132Z,60.47
2023-04-08T18:49:03.429Z,60.79
2023-04-08T18:51:31.385Z,61.44
2023-04-08T18:53:59.283Z,62.42
2023-04-08T18:56:27.332Z,63.20
2023-04-08T18:58:55.514Z,63.63
2023-04-08T19:04:38.529Z,65.68
2023-04-08T19:07:06.625Z,66.45
2023-04-08T19:09:34.978Z,67.05
2023-04-08T19:12:03.524Z,67.23
2023-04-08T19:14:32.191Z,67.49
2023-04-08T19:17:01.203Z,67.75
2023-04-08T19:19:29.400Z,68.10
2023-04-08T19:21:58.520Z,68.90
2023-04-08T19:24:26.428Z,69.22
2023-04-08T19:26:54.631Z,69.51
2023-04-08T19:29:23.421Z,69.90
2023-04-08T19:31:52.988Z,70.02
2023-04-08T19:34:21.210Z,70.58
2023-04-08T19:36:49.491Z,70.75
2023-04-08T19:39:18.743Z,71.20
2023-04-08T19:41:47.129Z,71.41
2023-04-08T19:44:15.078Z,71.80
2023-04-08T19:46:43.003Z,72.29
2023-04-08T19:49:11.001Z,72.75
2023-04-08T19:51:39.368Z,73.08
2023-04-08T19:54:07.347Z,73.97
2023-04-08T19:56:35.401Z,74.41
2023-04-08T19:59:03.416Z,74.78
2023-04-08T20:01:31.696Z,75.22
2023-04-08T20:03:59.803Z,75.54
2023-04-08T20:06:28.424Z,76.01
2023-04-08T20:08:57.141Z,76.33
2023-04-08T20:11:26.073Z,76.86
2023-04-08T20:13:54.158Z,77.26
2023-04-08T20:16:22.169Z,77.53
2023-04-08T20:18:50.496Z,77.73
2023-04-08T20:21:18.661Z,78.00
2023-04-08T20:23:47.354Z,78.16
2023-04-08T20:26:15.800Z,78.37
2023-04-08T20:28:45.182Z,78.56
2023-04-08T20:31:13.249Z,78.73
2023-04-08T20:33:45.626Z,78.99
2023-04-08T20:36:13.850Z,79.19
2023-04-08T20:38:42.823Z,78.47
2023-04-08T20:41:11.429Z,79.55
2023-04-08T20:43:39.848Z,79.88
2023-04-08T20:46:07.743Z,80.23
2023-04-08T20:48:36.210Z,80.52
2023-04-08T20:51:04.171Z,80.77
2023-04-08T20:53:32.212Z,81.05
2023-04-08T20:56:01.962Z,81.30
2023-04-08T20:58:30.794Z,81.53
2023-04-08T21:00:59.817Z,81.71
2023-04-08T21:03:28.026Z,81.84
2023-04-08T21:05:56.951Z,81.94
2023-04-08T21:08:24.963Z,82.17
2023-04-08T21:10:54.352Z,82.31
2023-04-08T21:13:22.659Z,82.46
2023-04-08T21:15:50.705Z,82.55
2023-04-08T21:18:18.631Z,82.58
2023-04-08T21:20:46.628Z,82.64
2023-04-08T21:23:14.692Z,82.82
2023-04-08T21:25:42.596Z,82.98
2023-04-08T21:28:10.820Z,83.09
2023-04-08T21:30:38.735Z,83.28
2023-04-08T21:33:06.891Z,83.48
2023-04-08T21:35:35.239Z,83.49
2023-04-08T21:38:03.354Z,83.63
2023-04-08T21:40:31.449Z,83.85
2023-04-08T21:42:59.472Z,83.99
2023-04-08T21:45:27.548Z,84.10
2023-04-08T21:47:55.694Z,84.21
2023-04-08T21:50:23.725Z,84.27
2023-04-08T21:52:52.195Z,84.39
2023-04-08T21:55:20.298Z,84.51
2023-04-08T21:57:49.007Z,84.56
2023-04-08T22:00:17.151Z,84.61
2023-04-08T22:02:46.682Z,84.80
2023-04-08T22:05:15.406Z,84.88
2023-04-08T22:07:43.588Z,84.97
2023-04-08T22:10:11.713Z,85.09
2023-04-08T22:12:39.554Z,85.10
2023-04-08T22:15:08.357Z,85.20
2023-04-08T22:17:36.378Z,85.40
2023-04-08T22:20:04.774Z,85.50
2023-04-08T22:22:32.736Z,85.64
2023-04-08T22:25:00.729Z,85.76
2023-04-08T22:27:29.338Z,85.84
2023-04-08T22:29:57.372Z,85.83
2023-04-08T22:32:25.534Z,85.85
2023-04-08T22:34:53.484Z,85.83
2023-04-08T22:37:21.835Z,85.81
2023-04-08T22:39:49.777Z,85.85
2023-04-08T22:42:17.720Z,85.86
2023-04-08T22:44:45.951Z,85.92
2023-04-08T22:47:14.845Z,85.95
2023-04-08T22:49:42.960Z,86.06
2023-04-08T22:52:11.035Z,86.18
2023-04-08T22:54:39.025Z,86.31
2023-04-08T22:57:07.239Z,86.36
2023-04-08T22:59:35.094Z,86.41
2023-04-08T23:02:03.235Z,86.48
2023-04-08T23:04:31.428Z,86.56
2023-04-08T23:06:59.559Z,86.64
2023-04-08T23:09:28.409Z,86.68
2023-04-08T23:11:56.395Z,86.78
2023-04-08T23:14:24.503Z,86.82
2023-04-08T23:16:52.842Z,86.82
2023-04-08T23:19:20.892Z,86.83
2023-04-08T23:21:48.864Z,86.84
2023-04-08T23:24:16.916Z,86.82
2023-04-08T23:26:44.876Z,86.79
2023-04-08T23:29:13.349Z,86.75
2023-04-08T23:31:42.223Z,86.70
2023-04-08T23:34:10.587Z,86.69
2023-04-08T23:36:38.522Z,86.68
2023-04-08T23:39:06.424Z,86.72
2023-04-08T23:41:34.469Z,86.82
2023-04-08T23:44:02.347Z,86.90
2023-04-08T23:46:30.378Z,86.94
2023-04-08T23:48:58.459Z,86.98
2023-04-08T23:51:27.744Z,87.04
2023-04-08T23:53:55.858Z,87.06
2023-04-08T23:56:24.027Z,87.05
2023-04-08T23:58:52.117Z,87.07
